createdAt,value
2017-07-17T00:00:10.490Z,934.26
2017-07-17T00:00:38.696Z,934.25
2017-07-17T00:01:06.904Z,934.24
2017-07-17T00:01:35.170Z,934.25
2017-07-17T00:02:03.382Z,934.23
2017-07-17T00:02:31.176Z,934.23
2017-07-17T00:02:59.480Z,934.21
2017-07-17T00:03:27.432Z,934.19
2017-07-17T00:03:55.601Z,934.17
2017-07-17T00:04:23.731Z,934.2
2017-07-17T00:04:51.907Z,934.2
2017-07-17T00:05:20.112Z,934.22
2017-07-17T00:05:48.254Z,934.24
2017-07-17T00:06:16.315Z,934.25
2017-07-17T00:06:44.576Z,934.27
2017-07-17T00:07:12.807Z,934.27
2017-07-17T00:07:40.797Z,934.25
2017-07-17T00:08:09.068Z,934.3
2017-07-17T00:08:37.286Z,934.28
2017-07-17T00:09:05.504Z,934.27
2017-07-17T00:09:33.559Z,934.27
2017-07-17T00:10:01.714Z,934.28
2017-07-17T00:10:29.899Z,934.27
2017-07-17T00:10:57.957Z,934.26
2017-07-17T00:11:26.187Z,934.26
2017-07-17T00:11:54.293Z,934.25
2017-07-17T00:12:22.529Z,934.28
2017-07-17T00:12:50.864Z,934.28
2017-07-17T00:13:19.003Z,934.26
2017-07-17T00:13:47.229Z,934.27
2017-07-17T00:14:15.489Z,934.26
2017-07-17T00:14:43.694Z,934.27
2017-07-17T00:15:11.937Z,934.25
2017-07-17T00:15:40.066Z,934.23
2017-07-17T00:16:08.289Z,934.28
2017-07-17T00:16:36.536Z,934.29
2017-07-17T00:17:04.740Z,934.25
2017-07-17T00:17:32.843Z,934.25
2017-07-17T00:18:01.093Z,934.3
2017-07-17T00:18:29.216Z,934.31
2017-07-17T00:18:57.237Z,934.33
2017-07-17T00:19:25.467Z,934.37
2017-07-17T00:19:53.474Z,934.34
2017-07-17T00:20:21.616Z,934.35
2017-07-17T00:20:49.866Z,934.34
2017-07-17T00:21:18.134Z,934.37
2017-07-17T00:21:46.244Z,934.38
2017-07-17T00:22:14.375Z,934.36
2017-07-17T00:22:42.405Z,934.34
2017-07-17T00:23:10.694Z,934.36
2017-07-17T00:23:38.827Z,934.37
2017-07-17T00:24:07.111Z,934.35
2017-07-17T00:24:35.316Z,934.36
2017-07-17T00:25:03.323Z,934.38
2017-07-17T00:25:31.450Z,934.36
2017-07-17T00:25:59.632Z,934.35
2017-07-17T00:26:27.639Z,934.37
2017-07-17T00:26:55.734Z,934.37
2017-07-17T00:27:23.971Z,934.39
2017-07-17T00:27:52.213Z,934.38
2017-07-17T00:28:20.475Z,934.38
2017-07-17T00:28:48.624Z,934.37
2017-07-17T00:29:16.696Z,934.38
2017-07-17T00:29:44.953Z,934.35
2017-07-17T00:30:13.148Z,934.35
2017-07-17T00:30:41.399Z,934.37
2017-07-17T00:31:09.501Z,934.35
2017-07-17T00:31:37.692Z,934.35
2017-07-17T00:32:05.824Z,934.34
2017-07-17T00:32:33.740Z,934.38
2017-07-17T00:33:01.967Z,934.38
2017-07-17T00:33:30.270Z,934.4
2017-07-17T00:33:58.492Z,934.4
2017-07-17T00:34:26.554Z,934.41
2017-07-17T00:34:54.825Z,934.42
2017-07-17T00:35:22.933Z,934.4
2017-07-17T00:35:51.192Z,934.41
2017-07-17T00:36:19.437Z,934.37
2017-07-17T00:36:47.668Z,934.37
2017-07-17T00:37:15.871Z,934.37
2017-07-17T00:37:44.082Z,934.37
2017-07-17T00:38:12.314Z,934.39
2017-07-17T00:38:40.554Z,934.38
2017-07-17T00:39:08.707Z,934.43
2017-07-17T00:39:36.836Z,934.45
2017-07-17T00:40:05.073Z,934.44
2017-07-17T00:40:33.071Z,934.45
2017-07-17T00:41:01.246Z,934.47
2017-07-17T00:41:29.403Z,934.49
2017-07-17T00:41:57.630Z,934.53
2017-07-17T00:42:25.765Z,934.48
2017-07-17T00:42:53.984Z,934.5
2017-07-17T00:43:22.324Z,934.5
2017-07-17T00:43:50.552Z,934.46
2017-07-17T00:44:18.666Z,934.45
2017-07-17T00:44:46.766Z,934.43
2017-07-17T00:45:14.986Z,934.43
2017-07-17T00:45:43.227Z,934.4
2017-07-17T00:46:11.467Z,934.44
2017-07-17T00:46:39.736Z,934.41
2017-07-17T00:47:07.748Z,934.45
2017-07-17T00:47:35.980Z,934.43
2017-07-17T00:48:04.094Z,934.46
2017-07-17T00:48:32.488Z,934.48
2017-07-17T00:49:00.586Z,934.48
2017-07-17T00:49:28.724Z,934.49
2017-07-17T00:49:56.936Z,934.46
2017-07-17T00:50:25.022Z,934.47
2017-07-17T00:50:53.086Z,934.46
2017-07-17T00:51:21.241Z,934.45
2017-07-17T00:51:49.480Z,934.47
2017-07-17T00:52:17.553Z,934.45
2017-07-17T00:52:45.796Z,934.46
2017-07-17T00:53:13.945Z,934.48
2017-07-17T00:53:42.264Z,934.49
2017-07-17T00:54:10.484Z,934.48
2017-07-17T00:54:38.526Z,934.49
2017-07-17T00:55:06.790Z,934.5
2017-07-17T00:55:34.994Z,934.48
2017-07-17T00:56:03.205Z,934.52
2017-07-17T00:56:31.334Z,934.52
2017-07-17T00:56:59.477Z,934.52
2017-07-17T00:57:27.703Z,934.53
2017-07-17T00:57:55.812Z,934.51
2017-07-17T00:58:23.948Z,934.5
2017-07-17T00:58:52.167Z,934.49
2017-07-17T00:59:20.209Z,934.49
2017-07-17T00:59:48.350Z,934.48
2017-07-17T01:00:16.391Z,934.49
2017-07-17T01:00:44.541Z,934.47
2017-07-17T01:01:12.745Z,934.46
2017-07-17T01:01:40.996Z,934.49
2017-07-17T01:02:09.221Z,934.46
2017-07-17T01:02:37.339Z,934.47
2017-07-17T01:03:05.501Z,934.44
2017-07-17T01:03:33.895Z,934.52
2017-07-17T01:04:02.102Z,934.5
2017-07-17T01:04:30.313Z,934.49
2017-07-17T01:04:58.556Z,934.5
2017-07-17T01:05:26.630Z,934.47
2017-07-17T01:05:54.728Z,934.49
2017-07-17T01:06:22.829Z,934.51
2017-07-17T01:06:51.035Z,934.5
2017-07-17T01:07:19.258Z,934.53
2017-07-17T01:07:47.501Z,934.49
2017-07-17T01:08:15.603Z,934.57
2017-07-17T01:08:43.891Z,934.54
2017-07-17T01:09:11.970Z,934.56
2017-07-17T01:09:40.075Z,934.56
2017-07-17T01:10:08.219Z,934.52
2017-07-17T01:10:36.479Z,934.56
2017-07-17T01:11:04.696Z,934.54
2017-07-17T01:11:32.822Z,934.52
2017-07-17T01:12:00.891Z,934.55
2017-07-17T01:12:29.089Z,934.58
2017-07-17T01:12:57.206Z,934.55
2017-07-17T01:13:25.224Z,934.59
2017-07-17T01:13:53.517Z,934.55
2017-07-17T01:14:21.647Z,934.54
2017-07-17T01:14:49.771Z,934.57
2017-07-17T01:15:17.794Z,934.58
2017-07-17T01:15:45.879Z,934.53
2017-07-17T01:16:14.097Z,934.54
2017-07-17T01:16:42.204Z,934.52
2017-07-17T01:17:10.259Z,934.56
2017-07-17T01:17:38.319Z,934.48
2017-07-17T01:18:06.467Z,934.48
2017-07-17T01:18:34.481Z,934.49
2017-07-17T01:19:02.500Z,934.49
2017-07-17T01:19:30.527Z,934.5
2017-07-17T01:19:58.566Z,934.46
2017-07-17T01:20:26.605Z,934.5
2017-07-17T01:20:54.853Z,934.48
2017-07-17T01:21:23.026Z,934.49
2017-07-17T01:21:51.145Z,934.51
2017-07-17T01:22:19.344Z,934.51
2017-07-17T01:22:47.565Z,934.51
2017-07-17T01:23:15.659Z,934.5
2017-07-17T01:23:44.169Z,934.51
2017-07-17T01:24:12.404Z,934.5
2017-07-17T01:24:40.623Z,934.47
2017-07-17T01:25:08.860Z,934.48
2017-07-17T01:25:37.088Z,934.47
2017-07-17T01:26:05.283Z,934.47
2017-07-17T01:26:33.310Z,934.46
2017-07-17T01:27:01.500Z,934.47
2017-07-17T01:27:29.586Z,934.46
2017-07-17T01:27:57.808Z,934.48
2017-07-17T01:28:26.026Z,934.46
2017-07-17T01:28:54.267Z,934.45
2017-07-17T01:29:22.397Z,934.46
2017-07-17T01:29:50.605Z,934.47
2017-07-17T01:30:18.869Z,934.46
2017-07-17T01:30:47.102Z,934.48
2017-07-17T01:31:15.339Z,934.45
2017-07-17T01:31:43.602Z,934.43
2017-07-17T01:32:12.000Z,934.44
2017-07-17T01:32:40.153Z,934.42
2017-07-17T01:33:08.366Z,934.43
2017-07-17T01:33:36.391Z,934.44
2017-07-17T01:34:04.650Z,934.43
2017-07-17T01:34:32.756Z,934.4
2017-07-17T01:35:00.959Z,934.42
2017-07-17T01:35:29.197Z,934.41
2017-07-17T01:35:57.189Z,934.43
2017-07-17T01:36:25.444Z,934.41
2017-07-17T01:36:53.608Z,934.44
2017-07-17T01:37:21.817Z,934.43
2017-07-17T01:37:49.931Z,934.4
2017-07-17T01:38:18.130Z,934.38
2017-07-17T01:38:46.281Z,934.36
2017-07-17T01:39:14.439Z,934.36
2017-07-17T01:39:42.666Z,934.33
2017-07-17T01:40:10.910Z,934.35
2017-07-17T01:40:39.120Z,934.34
2017-07-17T01:41:07.320Z,934.32
2017-07-17T01:41:35.440Z,934.32
2017-07-17T01:42:03.657Z,934.36
2017-07-17T01:42:31.911Z,934.41
2017-07-17T01:43:00.057Z,934.38
2017-07-17T01:43:28.305Z,934.36
2017-07-17T01:43:56.456Z,934.36
2017-07-17T01:44:24.519Z,934.36
2017-07-17T01:44:52.813Z,934.35
2017-07-17T01:45:21.043Z,934.37
2017-07-17T01:45:49.192Z,934.3
2017-07-17T01:46:17.413Z,934.29
2017-07-17T01:46:45.421Z,934.31
2017-07-17T01:47:13.682Z,934.34
2017-07-17T01:47:41.803Z,934.34
2017-07-17T01:48:09.844Z,934.35
2017-07-17T01:48:37.942Z,934.34
2017-07-17T01:49:06.077Z,934.34
2017-07-17T01:49:34.320Z,934.37
2017-07-17T01:50:02.646Z,934.33
2017-07-17T01:50:30.888Z,934.32
2017-07-17T01:50:59.104Z,934.34
2017-07-17T01:51:27.327Z,934.33
2017-07-17T01:51:55.351Z,934.3
2017-07-17T01:52:23.566Z,934.3
2017-07-17T01:52:51.589Z,934.34
2017-07-17T01:53:19.717Z,934.32
2017-07-17T01:53:47.910Z,934.34
2017-07-17T01:54:16.170Z,934.31
2017-07-17T01:54:44.275Z,934.33
2017-07-17T01:55:12.499Z,934.35
2017-07-17T01:55:40.742Z,934.38
2017-07-17T01:56:08.888Z,934.38
2017-07-17T01:56:36.890Z,934.39
2017-07-17T01:57:05.121Z,934.35
2017-07-17T01:57:33.283Z,934.38
2017-07-17T01:58:01.353Z,934.37
2017-07-17T01:58:29.508Z,934.38
2017-07-17T01:58:57.768Z,934.36
2017-07-17T01:59:25.899Z,934.38
2017-07-17T01:59:54.043Z,934.35
2017-07-17T02:00:22.168Z,934.35
2017-07-17T02:00:50.143Z,934.35
2017-07-17T02:01:18.260Z,934.35
2017-07-17T02:01:46.503Z,934.34
2017-07-17T02:02:14.784Z,934.34
2017-07-17T02:02:43.073Z,934.37
2017-07-17T02:03:11.332Z,934.38
2017-07-17T02:03:39.562Z,934.4
2017-07-17T02:04:07.774Z,934.4
2017-07-17T02:04:36.011Z,934.39
2017-07-17T02:05:04.288Z,934.39
2017-07-17T02:05:32.458Z,934.39
2017-07-17T02:06:00.573Z,934.4
2017-07-17T02:06:28.641Z,934.38
2017-07-17T02:06:56.841Z,934.37
2017-07-17T02:07:25.196Z,934.36
2017-07-17T02:07:53.388Z,934.35
2017-07-17T02:08:21.530Z,934.35
2017-07-17T02:08:49.760Z,934.36
2017-07-17T02:09:18.076Z,934.39
2017-07-17T02:09:46.309Z,934.4
2017-07-17T02:10:14.378Z,934.41
2017-07-17T02:10:42.525Z,934.41
2017-07-17T02:11:10.587Z,934.45
2017-07-17T02:11:38.601Z,934.42
2017-07-17T02:12:06.786Z,934.39
2017-07-17T02:12:34.881Z,934.44
2017-07-17T02:13:03.025Z,934.42
2017-07-17T02:13:31.250Z,934.42
2017-07-17T02:13:59.493Z,934.42
2017-07-17T02:14:27.859Z,934.45
2017-07-17T02:14:55.986Z,934.49
2017-07-17T02:15:24.063Z,934.49
2017-07-17T02:15:52.345Z,934.48
2017-07-17T02:16:20.378Z,934.52
2017-07-17T02:16:48.538Z,934.51
2017-07-17T02:17:16.571Z,934.5
2017-07-17T02:17:44.777Z,934.5
2017-07-17T02:18:12.811Z,934.48
2017-07-17T02:18:40.917Z,934.41
2017-07-17T02:19:09.072Z,934.44
2017-07-17T02:19:37.492Z,934.46
2017-07-17T02:20:05.559Z,934.46
2017-07-17T02:20:33.772Z,934.44
2017-07-17T02:21:01.957Z,934.46
2017-07-17T02:21:29.744Z,934.46
2017-07-17T02:21:57.954Z,934.45
2017-07-17T02:22:26.208Z,934.49
2017-07-17T02:22:54.440Z,934.49
2017-07-17T02:23:22.549Z,934.47
2017-07-17T02:23:50.711Z,934.45
2017-07-17T02:24:18.852Z,934.45
2017-07-17T02:24:46.878Z,934.48
2017-07-17T02:25:15.031Z,934.48
2017-07-17T02:25:43.119Z,934.46
2017-07-17T02:26:11.258Z,934.45
2017-07-17T02:26:39.274Z,934.48
2017-07-17T02:27:07.320Z,934.47
2017-07-17T02:27:35.503Z,934.5
2017-07-17T02:28:03.696Z,934.49
2017-07-17T02:28:31.854Z,934.51
2017-07-17T02:29:00.054Z,934.52
2017-07-17T02:29:28.395Z,934.52
2017-07-17T02:29:56.569Z,934.52
2017-07-17T02:30:24.675Z,934.53
2017-07-17T02:30:52.949Z,934.5
2017-07-17T02:31:20.950Z,934.51
2017-07-17T02:31:49.030Z,934.48
2017-07-17T02:32:17.085Z,934.51
2017-07-17T02:32:45.094Z,934.51
2017-07-17T02:33:13.319Z,934.5
2017-07-17T02:33:41.482Z,934.5
2017-07-17T02:34:09.452Z,934.48
2017-07-17T02:34:37.636Z,934.48
2017-07-17T02:35:05.940Z,934.44
2017-07-17T02:35:33.999Z,934.44
2017-07-17T02:36:02.124Z,934.43
2017-07-17T02:36:30.364Z,934.43
2017-07-17T02:36:58.548Z,934.41
2017-07-17T02:37:26.688Z,934.39
2017-07-17T02:37:54.932Z,934.42
2017-07-17T02:38:23.069Z,934.4
2017-07-17T02:38:51.202Z,934.43
2017-07-17T02:39:19.316Z,934.43
2017-07-17T02:39:47.414Z,934.38
2017-07-17T02:40:15.524Z,934.36
2017-07-17T02:40:43.551Z,934.38
2017-07-17T02:41:11.669Z,934.39
2017-07-17T02:41:39.867Z,934.39
2017-07-17T02:42:07.820Z,934.44
2017-07-17T02:42:36.046Z,934.41
2017-07-17T02:43:04.056Z,934.4
2017-07-17T02:43:32.116Z,934.44
2017-07-17T02:44:00.246Z,934.39
2017-07-17T02:44:28.360Z,934.39
2017-07-17T02:44:56.629Z,934.4
2017-07-17T02:45:24.738Z,934.41
2017-07-17T02:45:52.849Z,934.43
2017-07-17T02:46:20.927Z,934.42
2017-07-17T02:46:49.124Z,934.42
2017-07-17T02:47:17.319Z,934.42
2017-07-17T02:47:45.508Z,934.4
2017-07-17T02:48:13.761Z,934.39
2017-07-17T02:48:42.013Z,934.37
2017-07-17T02:49:10.121Z,934.36
2017-07-17T02:49:38.252Z,934.37
2017-07-17T02:50:06.352Z,934.36
2017-07-17T02:50:34.576Z,934.35
2017-07-17T02:51:02.726Z,934.37
2017-07-17T02:51:30.867Z,934.34
2017-07-17T02:51:58.971Z,934.35
2017-07-17T02:52:27.267Z,934.35
2017-07-17T02:52:55.298Z,934.38
2017-07-17T02:53:23.579Z,934.31
2017-07-17T02:53:51.797Z,934.3
2017-07-17T02:54:19.975Z,934.34
2017-07-17T02:54:48.195Z,934.32
2017-07-17T02:55:16.332Z,934.34
2017-07-17T02:55:44.517Z,934.32
2017-07-17T02:56:12.762Z,934.34
2017-07-17T02:56:40.963Z,934.33
2017-07-17T02:57:09.106Z,934.36
2017-07-17T02:57:37.059Z,934.37
2017-07-17T02:58:05.279Z,934.35
2017-07-17T02:58:33.498Z,934.37
2017-07-17T02:59:01.490Z,934.36
2017-07-17T02:59:29.514Z,934.4
2017-07-17T02:59:57.774Z,934.35
2017-07-17T03:00:26.010Z,934.36
2017-07-17T03:00:54.226Z,934.39
2017-07-17T03:01:22.482Z,934.36
2017-07-17T03:01:50.507Z,934.37
2017-07-17T03:02:18.641Z,934.32
2017-07-17T03:02:46.809Z,934.34
2017-07-17T03:03:14.894Z,934.34
2017-07-17T03:03:43.079Z,934.34
2017-07-17T03:04:11.251Z,934.32
2017-07-17T03:04:39.307Z,934.3
2017-07-17T03:05:07.614Z,934.3
2017-07-17T03:05:35.735Z,934.3
2017-07-17T03:06:04.035Z,934.28
2017-07-17T03:06:32.141Z,934.27
2017-07-17T03:07:00.363Z,934.28
2017-07-17T03:07:28.565Z,934.31
2017-07-17T03:07:56.688Z,934.27
2017-07-17T03:08:24.938Z,934.31
2017-07-17T03:08:53.020Z,934.28
2017-07-17T03:09:21.278Z,934.29
2017-07-17T03:09:49.409Z,934.28
2017-07-17T03:10:17.680Z,934.31
2017-07-17T03:10:45.833Z,934.31
2017-07-17T03:11:13.974Z,934.34
2017-07-17T03:11:42.019Z,934.31
2017-07-17T03:12:10.266Z,934.35
2017-07-17T03:12:38.403Z,934.35
2017-07-17T03:13:06.403Z,934.35
2017-07-17T03:13:34.601Z,934.37
2017-07-17T03:14:02.724Z,934.37
2017-07-17T03:14:30.948Z,934.39
2017-07-17T03:14:59.080Z,934.39
2017-07-17T03:15:27.189Z,934.39
2017-07-17T03:15:55.326Z,934.42
2017-07-17T03:16:23.436Z,934.39
2017-07-17T03:16:51.540Z,934.4
2017-07-17T03:17:19.662Z,934.34
2017-07-17T03:17:47.371Z,934.38
2017-07-17T03:18:15.452Z,934.36
2017-07-17T03:18:43.866Z,934.36
2017-07-17T03:19:12.088Z,934.33
2017-07-17T03:19:40.334Z,934.34
2017-07-17T03:20:08.421Z,934.36
2017-07-17T03:20:36.316Z,934.33
2017-07-17T03:21:04.595Z,934.34
2017-07-17T03:21:32.535Z,934.35
2017-07-17T03:22:00.437Z,934.34
2017-07-17T03:22:28.686Z,934.33
2017-07-17T03:22:56.902Z,934.29
2017-07-17T03:23:25.053Z,934.32
2017-07-17T03:23:53.241Z,934.29
2017-07-17T03:24:21.269Z,934.32
2017-07-17T03:24:49.424Z,934.29
2017-07-17T03:25:17.647Z,934.33
2017-07-17T03:25:45.879Z,934.35
2017-07-17T03:26:14.103Z,934.36
2017-07-17T03:26:42.247Z,934.39
2017-07-17T03:27:10.384Z,934.35
2017-07-17T03:27:38.390Z,934.39
2017-07-17T03:28:06.615Z,934.34
2017-07-17T03:28:34.826Z,934.39
2017-07-17T03:29:03.044Z,934.4
2017-07-17T03:29:31.209Z,934.37
2017-07-17T03:29:59.404Z,934.36
2017-07-17T03:30:27.603Z,934.38
2017-07-17T03:30:55.631Z,934.37
2017-07-17T03:31:23.631Z,934.35
2017-07-17T03:31:51.742Z,934.31
2017-07-17T03:32:19.660Z,934.34
2017-07-17T03:32:47.688Z,934.32
2017-07-17T03:33:15.830Z,934.29
2017-07-17T03:33:44.078Z,934.32
2017-07-17T03:34:12.116Z,934.31
2017-07-17T03:34:40.208Z,934.28
2017-07-17T03:35:08.451Z,934.31
2017-07-17T03:35:36.641Z,934.31
2017-07-17T03:36:04.705Z,934.32
2017-07-17T03:36:32.980Z,934.33
2017-07-17T03:37:01.121Z,934.34
2017-07-17T03:37:29.135Z,934.32
2017-07-17T03:37:57.313Z,934.31
2017-07-17T03:38:25.220Z,934.34
2017-07-17T03:38:53.303Z,934.33
2017-07-17T03:39:21.560Z,934.35
2017-07-17T03:39:49.812Z,934.33
2017-07-17T03:40:18.132Z,934.29
2017-07-17T03:40:46.391Z,934.31
2017-07-17T03:41:14.581Z,934.3
2017-07-17T03:41:42.752Z,934.28
2017-07-17T03:42:10.961Z,934.26
2017-07-17T03:42:39.183Z,934.32
2017-07-17T03:43:07.327Z,934.29
2017-07-17T03:43:35.417Z,934.32
2017-07-17T03:44:03.422Z,934.29
2017-07-17T03:44:31.528Z,934.29
2017-07-17T03:44:59.531Z,934.3
2017-07-17T03:45:27.526Z,934.29
2017-07-17T03:45:55.549Z,934.29
2017-07-17T03:46:23.645Z,934.32
2017-07-17T03:46:51.846Z,934.33
2017-07-17T03:47:19.971Z,934.32
2017-07-17T03:47:48.080Z,934.28
2017-07-17T03:48:16.096Z,934.29
2017-07-17T03:48:44.309Z,934.31
2017-07-17T03:49:12.535Z,934.29
2017-07-17T03:49:40.744Z,934.3
2017-07-17T03:50:08.922Z,934.31
2017-07-17T03:50:37.134Z,934.29
2017-07-17T03:51:05.148Z,934.32
2017-07-17T03:51:33.264Z,934.3
2017-07-17T03:52:01.416Z,934.32
2017-07-17T03:52:29.640Z,934.27
2017-07-17T03:52:57.733Z,934.24
2017-07-17T03:53:25.829Z,934.26
2017-07-17T03:53:53.964Z,934.29
2017-07-17T03:54:21.968Z,934.27
2017-07-17T03:54:50.169Z,934.28
2017-07-17T03:55:18.273Z,934.24
2017-07-17T03:55:46.448Z,934.28
2017-07-17T03:56:14.524Z,934.24
2017-07-17T03:56:42.758Z,934.27
2017-07-17T03:57:10.840Z,934.27
2017-07-17T03:57:38.900Z,934.24
2017-07-17T03:58:07.125Z,934.24
2017-07-17T03:58:35.290Z,934.27
2017-07-17T03:59:03.508Z,934.25
2017-07-17T03:59:31.792Z,934.23
2017-07-17T04:00:00.038Z,934.26
2017-07-17T04:00:28.305Z,934.22
2017-07-17T04:00:56.507Z,934.24
2017-07-17T04:01:24.538Z,934.24
2017-07-17T04:01:52.777Z,934.21
2017-07-17T04:02:20.904Z,934.25
2017-07-17T04:02:48.958Z,934.19
2017-07-17T04:03:16.973Z,934.23
2017-07-17T04:03:45.172Z,934.19
2017-07-17T04:04:13.077Z,934.2
2017-07-17T04:04:41.238Z,934.25
2017-07-17T04:05:09.489Z,934.24
2017-07-17T04:05:37.531Z,934.24
2017-07-17T04:06:05.648Z,934.22
2017-07-17T04:06:33.895Z,934.27
2017-07-17T04:07:01.994Z,934.26
2017-07-17T04:07:30.086Z,934.26
2017-07-17T04:07:58.114Z,934.24
2017-07-17T04:08:26.274Z,934.26
2017-07-17T04:08:54.360Z,934.29
2017-07-17T04:09:22.516Z,934.24
2017-07-17T04:09:50.513Z,934.25
2017-07-17T04:10:18.692Z,934.27
2017-07-17T04:10:46.690Z,934.24
2017-07-17T04:11:14.799Z,934.27
2017-07-17T04:11:42.874Z,934.25
2017-07-17T04:12:11.108Z,934.26
2017-07-17T04:12:39.276Z,934.22
2017-07-17T04:13:07.499Z,934.24
2017-07-17T04:13:35.691Z,934.18
2017-07-17T04:14:03.847Z,934.2
2017-07-17T04:14:32.022Z,934.2
2017-07-17T04:15:00.049Z,934.2
2017-07-17T04:15:28.329Z,934.24
2017-07-17T04:15:56.597Z,934.25
2017-07-17T04:16:24.777Z,934.27
2017-07-17T04:16:53.008Z,934.24
2017-07-17T04:17:21.169Z,934.25
2017-07-17T04:17:49.316Z,934.26
2017-07-17T04:18:17.333Z,934.25
2017-07-17T04:18:45.555Z,934.19
2017-07-17T04:19:13.633Z,934.23
2017-07-17T04:19:41.659Z,934.21
2017-07-17T04:20:09.774Z,934.21
2017-07-17T04:20:38.007Z,934.2
2017-07-17T04:21:06.129Z,934.16
2017-07-17T04:21:34.259Z,934.21
2017-07-17T04:22:02.566Z,934.2
2017-07-17T04:22:30.788Z,934.23
2017-07-17T04:22:58.988Z,934.26
2017-07-17T04:23:27.100Z,934.25
2017-07-17T04:23:55.251Z,934.25
2017-07-17T04:24:23.387Z,934.26
2017-07-17T04:24:51.644Z,934.28
2017-07-17T04:25:19.788Z,934.27
2017-07-17T04:25:48.151Z,934.27
2017-07-17T04:26:16.302Z,934.26
2017-07-17T04:26:44.534Z,934.28
2017-07-17T04:27:12.726Z,934.34
2017-07-17T04:27:40.777Z,934.29
2017-07-17T04:28:09.003Z,934.3
2017-07-17T04:28:37.186Z,934.27
2017-07-17T04:29:05.413Z,934.3
2017-07-17T04:29:33.622Z,934.33
2017-07-17T04:30:01.865Z,934.33
2017-07-17T04:30:29.866Z,934.3
2017-07-17T04:30:58.201Z,934.33
2017-07-17T04:31:26.357Z,934.35
2017-07-17T04:31:54.480Z,934.36
2017-07-17T04:32:22.614Z,934.33
2017-07-17T04:32:50.703Z,934.34
2017-07-17T04:33:18.842Z,934.36
2017-07-17T04:33:47.030Z,934.37
2017-07-17T04:34:14.940Z,934.38
2017-07-17T04:34:42.929Z,934.34
2017-07-17T04:35:10.908Z,934.35
2017-07-17T04:35:38.905Z,934.37
2017-07-17T04:36:07.090Z,934.35
2017-07-17T04:36:35.130Z,934.36
2017-07-17T04:37:03.036Z,934.39
2017-07-17T04:37:31.107Z,934.4
2017-07-17T04:37:59.347Z,934.36
2017-07-17T04:38:27.542Z,934.33
2017-07-17T04:38:55.693Z,934.35
2017-07-17T04:39:23.805Z,934.37
2017-07-17T04:39:52.080Z,934.39
2017-07-17T04:40:20.236Z,934.38
2017-07-17T04:40:48.496Z,934.4
2017-07-17T04:41:16.615Z,934.43
2017-07-17T04:41:44.754Z,934.39
2017-07-17T04:42:12.950Z,934.43
2017-07-17T04:42:41.076Z,934.44
2017-07-17T04:43:09.232Z,934.44
2017-07-17T04:43:37.260Z,934.47
2017-07-17T04:44:05.388Z,934.49
2017-07-17T04:44:33.664Z,934.53
2017-07-17T04:45:01.824Z,934.49
2017-07-17T04:45:30.034Z,934.52
2017-07-17T04:45:58.247Z,934.48
2017-07-17T04:46:26.455Z,934.48
2017-07-17T04:46:54.433Z,934.49
2017-07-17T04:47:22.495Z,934.49
2017-07-17T04:47:50.645Z,934.47
2017-07-17T04:48:18.579Z,934.49
2017-07-17T04:48:46.609Z,934.47
2017-07-17T04:49:14.649Z,934.48
2017-07-17T04:49:42.545Z,934.48
2017-07-17T04:50:10.602Z,934.48
2017-07-17T04:50:38.799Z,934.5
2017-07-17T04:51:07.122Z,934.51
2017-07-17T04:51:35.262Z,934.5
2017-07-17T04:52:03.367Z,934.51
2017-07-17T04:52:31.517Z,934.5
2017-07-17T04:52:59.591Z,934.5
2017-07-17T04:53:27.500Z,934.47
2017-07-17T04:53:55.694Z,934.49
2017-07-17T04:54:23.842Z,934.49
2017-07-17T04:54:51.884Z,934.46
2017-07-17T04:55:19.981Z,934.43
2017-07-17T04:55:48.174Z,934.45
2017-07-17T04:56:16.396Z,934.43
2017-07-17T04:56:44.473Z,934.44
2017-07-17T04:57:12.673Z,934.46
2017-07-17T04:57:40.766Z,934.43
2017-07-17T04:58:08.941Z,934.45
2017-07-17T04:58:36.959Z,934.45
2017-07-17T04:59:05.040Z,934.44
2017-07-17T04:59:33.269Z,934.43
2017-07-17T05:00:01.447Z,934.44
2017-07-17T05:00:29.716Z,934.42
2017-07-17T05:00:58.036Z,934.41
2017-07-17T05:01:26.190Z,934.42
2017-07-17T05:01:54.350Z,934.43
2017-07-17T05:02:22.570Z,934.38
2017-07-17T05:02:50.614Z,934.42
2017-07-17T05:03:18.861Z,934.39
2017-07-17T05:03:47.044Z,934.4
2017-07-17T05:04:15.121Z,934.4
2017-07-17T05:04:43.235Z,934.39
2017-07-17T05:05:11.339Z,934.38
2017-07-17T05:05:39.503Z,934.36
2017-07-17T05:06:07.826Z,934.37
2017-07-17T05:06:35.976Z,934.39
2017-07-17T05:07:04.101Z,934.37
2017-07-17T05:07:32.359Z,934.37
2017-07-17T05:08:00.480Z,934.38
2017-07-17T05:08:28.603Z,934.41
2017-07-17T05:08:56.650Z,934.37
2017-07-17T05:09:24.832Z,934.36
2017-07-17T05:09:52.923Z,934.39
2017-07-17T05:10:20.994Z,934.32
2017-07-17T05:10:49.122Z,934.36
2017-07-17T05:11:17.438Z,934.33
2017-07-17T05:11:45.627Z,934.33
2017-07-17T05:12:13.733Z,934.34
2017-07-17T05:12:41.787Z,934.34
2017-07-17T05:13:09.895Z,934.33
2017-07-17T05:13:37.898Z,934.31
2017-07-17T05:14:05.948Z,934.32
2017-07-17T05:14:34.194Z,934.35
2017-07-17T05:15:02.305Z,934.32
2017-07-17T05:15:30.430Z,934.32
2017-07-17T05:15:58.626Z,934.33
2017-07-17T05:16:26.806Z,934.35
2017-07-17T05:16:54.733Z,934.34
2017-07-17T05:17:22.989Z,934.32
2017-07-17T05:17:51.232Z,934.33
2017-07-17T05:18:19.452Z,934.33
2017-07-17T05:18:47.563Z,934.31
2017-07-17T05:19:15.683Z,934.33
2017-07-17T05:19:43.799Z,934.3
2017-07-17T05:20:11.926Z,934.29
2017-07-17T05:20:39.923Z,934.34
2017-07-17T05:21:08.055Z,934.32
2017-07-17T05:21:36.349Z,934.29
2017-07-17T05:22:04.489Z,934.28
2017-07-17T05:22:32.736Z,934.28
2017-07-17T05:23:00.655Z,934.31
2017-07-17T05:23:28.790Z,934.29
2017-07-17T05:23:57.003Z,934.26
2017-07-17T05:24:25.039Z,934.31
2017-07-17T05:24:53.237Z,934.29
2017-07-17T05:25:21.406Z,934.3
2017-07-17T05:25:49.669Z,934.29
2017-07-17T05:26:17.974Z,934.3
2017-07-17T05:26:46.035Z,934.29
2017-07-17T05:27:14.277Z,934.3
2017-07-17T05:27:42.376Z,934.29
2017-07-17T05:28:10.586Z,934.31
2017-07-17T05:28:38.792Z,934.3
2017-07-17T05:29:06.931Z,934.3
2017-07-17T05:29:35.155Z,934.29
2017-07-17T05:30:03.355Z,934.29
2017-07-17T05:30:31.567Z,934.29
2017-07-17T05:30:59.668Z,934.26
2017-07-17T05:31:27.875Z,934.26
2017-07-17T05:31:55.888Z,934.28
2017-07-17T05:32:24.136Z,934.29
2017-07-17T05:32:52.082Z,934.25
2017-07-17T05:33:20.179Z,934.27
2017-07-17T05:33:48.336Z,934.28
2017-07-17T05:34:16.538Z,934.29
2017-07-17T05:34:44.661Z,934.33
2017-07-17T05:35:12.821Z,934.3
2017-07-17T05:35:40.997Z,934.29
2017-07-17T05:36:09.085Z,934.23
2017-07-17T05:36:37.463Z,934.26
2017-07-17T05:37:05.633Z,934.23
2017-07-17T05:37:33.649Z,934.2
2017-07-17T05:38:01.895Z,934.19
2017-07-17T05:38:30.160Z,934.17
2017-07-17T05:38:58.354Z,934.18
2017-07-17T05:39:26.558Z,934.18
2017-07-17T05:39:54.772Z,934.17
2017-07-17T05:40:22.979Z,934.14
2017-07-17T05:40:51.016Z,934.16
2017-07-17T05:41:19.187Z,934.2
2017-07-17T05:41:47.332Z,934.21
2017-07-17T05:42:15.547Z,934.22
2017-07-17T05:42:43.816Z,934.21
2017-07-17T05:43:11.805Z,934.21
2017-07-17T05:43:39.947Z,934.21
2017-07-17T05:44:08.188Z,934.21
2017-07-17T05:44:36.252Z,934.21
2017-07-17T05:45:04.176Z,934.18
2017-07-17T05:45:32.189Z,934.15
2017-07-17T05:46:00.415Z,934.16
2017-07-17T05:46:28.630Z,934.15
2017-07-17T05:46:57.007Z,934.16
2017-07-17T05:47:25.016Z,934.15
2017-07-17T05:47:53.144Z,934.15
2017-07-17T05:48:21.281Z,934.16
2017-07-17T05:48:49.308Z,934.14
2017-07-17T05:49:17.522Z,934.15
2017-07-17T05:49:45.537Z,934.17
2017-07-17T05:50:13.628Z,934.14
2017-07-17T05:50:41.830Z,934.15
2017-07-17T05:51:09.969Z,934.16
2017-07-17T05:51:38.093Z,934.15
2017-07-17T05:52:06.555Z,934.17